createdAt,value
2019-03-12T00:00:26.893Z,98185.80
2019-03-12T00:02:34.477Z,98182.09
2019-03-12T00:04:42.105Z,98188.87
2019-03-12T00:06:49.682Z,98184.98
2019-03-12T00:08:57.262Z,98182.73
2019-03-12T00:11:05.009Z,98185.96
2019-03-12T00:13:12.582Z,98183.25
2019-03-12T00:15:20.277Z,98190.02
2019-03-12T00:17:27.941Z,98186.72
2019-03-12T00:19:35.525Z,98193.89
2019-03-12T00:21:43.210Z,98180.23
2019-03-12T00:23:51.002Z,98185.47
2019-03-12T00:25:58.645Z,98196.47
2019-03-12T00:28:06.284Z,98195.12
2019-03-12T00:30:14.343Z,98193.26
2019-03-12T00:32:22.000Z,98193.95
2019-03-12T00:34:29.814Z,98202.34
2019-03-12T00:36:37.429Z,98200.99
2019-03-12T00:38:46.657Z,98203.17
2019-03-12T00:40:54.244Z,98200.21
2019-03-12T00:43:01.894Z,98198.02
2019-03-12T00:45:12.224Z,98208.87
2019-03-12T00:47:19.803Z,98205.52
2019-03-12T00:49:27.426Z,98206.86
2019-03-12T00:51:35.116Z,98201.92
2019-03-12T00:53:42.697Z,98200.63
2019-03-12T00:55:50.305Z,98203.09
2019-03-12T00:57:57.949Z,98197.25
2019-03-12T01:00:19.948Z,98197.57
2019-03-12T01:02:27.658Z,98197.21
2019-03-12T01:04:36.279Z,98201.83
2019-03-12T01:06:43.932Z,98199.43
2019-03-12T01:08:51.611Z,98198.20
2019-03-12T01:10:59.184Z,98203.23
2019-03-12T01:13:17.033Z,98208.57
2019-03-12T01:15:26.067Z,98211.17
2019-03-12T01:17:33.749Z,98203.00
2019-03-12T01:19:41.327Z,98206.27
2019-03-12T01:21:48.947Z,98216.33
2019-03-12T01:23:56.963Z,98223.16
2019-03-12T01:26:04.614Z,98226.45
2019-03-12T01:28:12.223Z,98231.31
2019-03-12T01:30:20.287Z,98234.34
2019-03-12T01:32:27.869Z,98237.16
2019-03-12T01:34:35.482Z,98234.64
2019-03-12T01:36:43.206Z,98235.12
2019-03-12T01:38:50.857Z,98244.34
2019-03-12T01:40:58.536Z,98244.34
2019-03-12T01:43:06.564Z,98249.88
2019-03-12T01:45:15.432Z,98251.42
2019-03-12T01:47:23.045Z,98242.77
2019-03-12T01:49:30.896Z,98239.26
2019-03-12T01:51:38.484Z,98254.99
2019-03-12T01:53:45.984Z,98266.38
2019-03-12T01:55:53.645Z,98268.98
2019-03-12T01:58:01.217Z,98273.48
2019-03-12T02:00:13.850Z,98276.92
2019-03-12T02:02:21.415Z,98284.67
2019-03-12T02:04:29.149Z,98282.97
2019-03-12T02:06:36.816Z,98280.86
2019-03-12T02:08:45.353Z,98280.98
2019-03-12T02:10:52.990Z,98292.64
2019-03-12T02:13:00.481Z,98290.96
2019-03-12T02:15:16.826Z,98287.55
2019-03-12T02:17:24.418Z,98292.09
2019-03-12T02:19:32.002Z,98292.17
2019-03-12T02:21:39.651Z,98298.41
2019-03-12T02:23:47.392Z,98310.70
2019-03-12T02:25:55.137Z,98309.76
2019-03-12T02:28:02.711Z,98308.52
2019-03-12T02:30:17.751Z,98315.28
2019-03-12T02:32:25.434Z,98328.77
2019-03-12T02:34:32.996Z,98325.45
2019-03-12T02:36:40.668Z,98330.08
2019-03-12T02:38:48.479Z,98325.09
2019-03-12T02:40:57.352Z,98334.66
2019-03-12T02:43:05.196Z,98336.68
2019-03-12T02:45:17.137Z,98335.11
2019-03-12T02:47:24.831Z,98346.75
2019-03-12T02:49:32.477Z,98339.15
2019-03-12T02:51:40.167Z,98344.18
2019-03-12T02:53:47.727Z,98349.24
2019-03-12T02:55:55.376Z,98351.23
2019-03-12T02:58:03.069Z,98355.09
2019-03-12T03:00:19.397Z,98353.59
2019-03-12T03:02:26.966Z,98353.26
2019-03-12T03:04:34.477Z,98360.89
2019-03-12T03:06:43.668Z,98363.41
2019-03-12T03:08:51.330Z,98369.23
2019-03-12T03:10:58.957Z,98378.45
2019-03-12T03:13:08.115Z,98383.61
2019-03-12T03:15:25.903Z,98379.81
2019-03-12T03:17:33.501Z,98385.69
2019-03-12T03:19:41.077Z,98395.78
2019-03-12T03:21:48.747Z,98397.08
2019-03-12T03:23:56.339Z,98399.91
2019-03-12T03:26:04.014Z,98407.13
2019-03-12T03:28:11.693Z,98398.79
2019-03-12T03:30:24.657Z,98398.34
2019-03-12T03:32:32.296Z,98405.52
2019-03-12T03:34:39.772Z,98413.84
2019-03-12T03:36:47.566Z,98413.81
2019-03-12T03:38:55.369Z,98422.60
2019-03-12T03:41:03.616Z,98428.98
2019-03-12T03:43:11.289Z,98412.61
2019-03-12T03:45:19.490Z,98419.64
2019-03-12T03:47:27.058Z,98423.09
2019-03-12T03:49:34.663Z,98439.01
2019-03-12T03:51:42.339Z,98434.42
2019-03-12T03:53:51.201Z,98434.38
2019-03-12T03:55:58.798Z,98437.66
2019-03-12T03:58:06.480Z,98448.23
2019-03-12T04:00:24.636Z,98445.39
2019-03-12T04:02:32.225Z,98442.83
2019-03-12T04:04:39.799Z,98449.95
2019-03-12T04:06:48.588Z,98449.08
2019-03-12T04:08:56.190Z,98461.26
2019-03-12T04:11:03.856Z,98452.00
2019-03-12T04:13:12.806Z,98462.88
2019-03-12T04:15:20.826Z,98465.08
2019-03-12T04:17:28.489Z,98481.48
2019-03-12T04:19:36.161Z,98480.69
2019-03-12T04:21:43.769Z,98481.50
2019-03-12T04:23:51.338Z,98481.91
2019-03-12T04:25:59.064Z,98490.31
2019-03-12T04:28:06.653Z,98497.52
2019-03-12T04:30:19.713Z,98489.52
2019-03-12T04:32:27.269Z,98502.56
2019-03-12T04:34:35.091Z,98498.77
2019-03-12T04:36:42.746Z,98505.89
2019-03-12T04:38:50.784Z,98506.25
2019-03-12T04:40:58.481Z,98518.06
2019-03-12T04:43:06.186Z,98513.08
2019-03-12T04:45:16.645Z,98508.50
2019-03-12T04:47:25.219Z,98516.92
2019-03-12T04:49:32.868Z,98520.19
2019-03-12T04:51:40.803Z,98524.35
2019-03-12T04:53:49.532Z,98524.31
2019-03-12T04:55:57.146Z,98527.27
2019-03-12T04:58:04.721Z,98540.00
2019-03-12T05:00:20.684Z,98539.56
2019-03-12T05:02:28.359Z,98547.13
2019-03-12T05:04:35.930Z,98546.33
2019-03-12T05:06:43.527Z,98543.86
2019-03-12T05:08:51.097Z,98549.73
2019-03-12T05:10:58.772Z,98555.69
2019-03-12T05:13:06.463Z,98558.20
2019-03-12T05:15:19.575Z,98558.20
2019-03-12T05:17:27.214Z,98557.84
2019-03-12T05:19:34.929Z,98560.37
2019-03-12T05:21:44.874Z,98562.10
2019-03-12T05:23:51.770Z,98570.02
2019-03-12T05:25:59.384Z,98569.17
2019-03-12T05:28:07.121Z,98578.43
2019-03-12T05:30:19.496Z,98578.80
2019-03-12T05:32:27.139Z,98584.80
2019-03-12T05:34:34.777Z,98599.17
2019-03-12T05:36:42.368Z,98603.88
2019-03-12T05:38:50.156Z,98589.22
2019-03-12T05:40:57.718Z,98597.22
2019-03-12T05:43:05.456Z,98602.64
2019-03-12T05:45:19.672Z,98596.77
2019-03-12T05:47:27.395Z,98614.84
2019-03-12T05:49:34.959Z,98617.32
2019-03-12T05:51:42.544Z,98623.19
2019-03-12T05:53:52.218Z,98619.41
2019-03-12T05:55:59.782Z,98624.83
2019-03-12T05:58:07.465Z,98643.27
2019-03-12T06:00:21.985Z,98626.52
2019-03-12T06:02:29.551Z,98637.81
2019-03-12T06:04:38.224Z,98637.36
2019-03-12T06:06:45.904Z,98645.77
2019-03-12T06:08:53.472Z,98643.64
2019-03-12T06:11:01.261Z,98646.98
2019-03-12T06:13:08.943Z,98654.08
2019-03-12T06:15:17.509Z,98650.72
2019-03-12T06:17:25.331Z,98656.19
2019-03-12T06:19:34.166Z,98657.88
2019-03-12T06:21:41.814Z,98662.90
2019-03-12T06:23:50.443Z,98651.18
2019-03-12T06:25:58.022Z,98660.39
2019-03-12T06:28:05.647Z,98668.37
2019-03-12T06:30:21.415Z,98664.55
2019-03-12T06:32:36.657Z,98667.45
2019-03-12T06:34:45.798Z,98669.56
2019-03-12T06:36:57.796Z,98671.66
2019-03-12T06:39:12.279Z,98666.61
2019-03-12T06:41:31.463Z,98671.64
2019-03-12T06:43:46.436Z,98676.30
2019-03-12T06:46:01.685Z,98680.08
2019-03-12T06:48:27.350Z,98674.98
2019-03-12T06:50:41.451Z,98691.28
2019-03-12T06:53:06.969Z,98682.44
2019-03-12T06:55:32.582Z,98682.40
2019-03-12T06:57:58.485Z,98688.27
2019-03-12T07:00:12.729Z,98700.05
2019-03-12T07:02:21.941Z,98698.75
2019-03-12T07:04:46.460Z,98710.02
2019-03-12T07:07:11.560Z,98704.16
2019-03-12T07:09:19.767Z,98716.23
2019-03-12T07:11:37.637Z,98718.74
2019-03-12T07:13:46.952Z,98718.31
2019-03-12T07:16:05.324Z,98729.23
2019-03-12T07:18:16.157Z,98732.14
2019-03-12T07:20:29.482Z,98736.34
2019-03-12T07:22:57.053Z,98733.41
2019-03-12T07:25:12.114Z,98733.82
2019-03-12T07:27:21.485Z,98731.97
2019-03-12T07:29:42.000Z,98738.23
2019-03-12T07:31:51.314Z,98740.42
2019-03-12T07:34:09.448Z,98751.03
2019-03-12T07:36:25.454Z,98749.36
2019-03-12T07:38:37.473Z,98745.19
2019-03-12T07:41:02.994Z,98767.81
2019-03-12T07:43:15.304Z,98754.46
2019-03-12T07:45:27.180Z,98755.34
2019-03-12T07:47:42.422Z,98760.31
2019-03-12T07:49:54.368Z,98767.42
2019-03-12T07:52:04.757Z,98758.98
2019-03-12T07:54:17.893Z,98763.48
2019-03-12T07:56:27.897Z,98762.25
2019-03-12T07:58:55.595Z,98779.45
2019-03-12T08:01:06.272Z,98767.72
2019-03-12T08:03:25.595Z,98765.63
2019-03-12T08:05:49.794Z,98767.28
2019-03-12T08:08:04.830Z,98773.06
2019-03-12T08:10:14.181Z,98799.91
2019-03-12T08:12:25.011Z,98788.53
2019-03-12T08:14:36.830Z,98773.77
2019-03-12T08:17:02.186Z,98769.13
2019-03-12T08:19:14.365Z,98776.77
2019-03-12T08:21:26.223Z,98765.39
2019-03-12T08:23:41.310Z,98772.02
2019-03-12T08:25:59.279Z,98776.54
2019-03-12T08:28:10.995Z,98771.88
2019-03-12T08:30:22.961Z,98772.09
2019-03-12T08:32:48.442Z,98778.77
2019-03-12T08:35:13.168Z,98779.11
2019-03-12T08:37:22.547Z,98781.58
2019-03-12T08:39:48.071Z,98780.83
2019-03-12T08:41:57.382Z,98787.08
2019-03-12T08:44:26.161Z,98785.86
2019-03-12T08:46:43.013Z,98783.74
2019-03-12T08:48:52.528Z,98789.63
2019-03-12T08:51:05.005Z,98786.17
2019-03-12T08:53:19.117Z,98792.95
2019-03-12T08:55:28.502Z,98792.81
2019-03-12T08:57:47.231Z,98783.21
2019-03-12T08:59:57.067Z,98790.19
2019-03-12T09:02:21.561Z,98792.37
2019-03-12T09:04:30.768Z,98810.95
2019-03-12T09:06:43.854Z,98790.73
2019-03-12T09:09:09.866Z,98802.52
2019-03-12T09:11:37.184Z,98798.59
2019-03-12T09:13:53.462Z,98810.45
2019-03-12T09:16:12.571Z,98805.36
2019-03-12T09:18:28.787Z,98801.73
2019-03-12T09:20:38.982Z,98822.50
2019-03-12T09:23:04.346Z,98805.28
2019-03-12T09:25:18.285Z,98817.80
2019-03-12T09:27:48.568Z,98809.46
2019-03-12T09:29:59.165Z,98806.02
2019-03-12T09:32:24.792Z,98806.84
2019-03-12T09:34:36.653Z,98808.89
2019-03-12T09:37:02.972Z,98817.69
2019-03-12T09:39:28.949Z,98802.48
2019-03-12T09:41:38.298Z,98808.84
2019-03-12T09:43:48.928Z,98811.95
2019-03-12T09:46:03.943Z,98809.91
2019-03-12T09:48:18.806Z,98813.86
2019-03-12T09:50:28.191Z,98805.45
2019-03-12T09:52:53.324Z,98806.86
2019-03-12T09:55:06.671Z,98809.91
2019-03-12T09:57:28.266Z,98806.80
2019-03-12T09:59:35.600Z,98823.97
2019-03-12T10:02:01.134Z,98811.97
2019-03-12T10:04:26.508Z,98816.16
2019-03-12T10:06:43.334Z,98817.00
2019-03-12T10:08:58.014Z,98819.03
2019-03-12T10:11:07.449Z,98806.98
2019-03-12T10:13:18.108Z,98819.36
2019-03-12T10:15:28.679Z,98817.10
2019-03-12T10:17:48.173Z,98812.52
2019-03-12T10:19:57.370Z,98807.73
2019-03-12T10:22:04.805Z,98814.47
2019-03-12T10:24:14.018Z,98844.59
2019-03-12T10:26:28.996Z,98814.13
2019-03-12T10:28:45.515Z,98830.70
2019-03-12T10:31:11.082Z,98827.59
2019-03-12T10:33:18.454Z,98812.34
2019-03-12T10:35:27.878Z,98828.60
2019-03-12T10:37:55.256Z,98815.39
2019-03-12T10:40:16.459Z,98805.84
2019-03-12T10:42:28.738Z,98811.85
2019-03-12T10:44:38.033Z,98822.09
2019-03-12T10:46:53.231Z,98811.70
2019-03-12T10:49:01.059Z,98806.38
2019-03-12T10:51:08.753Z,98821.16
2019-03-12T10:53:17.245Z,98812.37
2019-03-12T10:55:25.093Z,98804.67
2019-03-12T10:57:32.859Z,98818.63
2019-03-12T10:59:40.513Z,98825.33
2019-03-12T11:01:49.171Z,98816.02
2019-03-12T11:03:56.803Z,98809.53
2019-03-12T11:06:04.683Z,98813.78
2019-03-12T11:08:12.349Z,98815.88
2019-03-12T11:10:20.651Z,98820.91
2019-03-12T11:12:29.385Z,98827.89
2019-03-12T11:14:37.170Z,98823.45
2019-03-12T11:16:44.842Z,98823.43
2019-03-12T11:18:53.774Z,98826.68
2019-03-12T11:21:01.425Z,98826.55
2019-03-12T11:23:10.085Z,98821.45
2019-03-12T11:25:27.150Z,98816.61
2019-03-12T11:27:28.461Z,98817.00
2019-03-12T11:29:36.214Z,98816.64
2019-03-12T11:31:43.971Z,98816.82
2019-03-12T11:33:51.626Z,98805.73
2019-03-12T11:35:59.358Z,98803.78
2019-03-12T11:38:07.181Z,98800.56
2019-03-12T11:40:23.835Z,98805.93
2019-03-12T11:42:31.474Z,98815.80
2019-03-12T11:44:39.478Z,98796.86
2019-03-12T11:46:47.356Z,98790.39
2019-03-12T11:48:54.953Z,98782.41
2019-03-12T11:51:02.642Z,98791.92
2019-03-12T11:53:10.546Z,98795.24
2019-03-12T11:55:18.561Z,98787.83
2019-03-12T11:57:26.288Z,98796.72
2019-03-12T11:59:33.989Z,98789.77
2019-03-12T12:01:41.533Z,98785.64
2019-03-12T12:03:49.202Z,98801.11
2019-03-12T12:05:56.934Z,98794.41
2019-03-12T12:08:04.649Z,98791.42
2019-03-12T12:10:18.385Z,98784.16
2019-03-12T12:12:26.037Z,98784.13
2019-03-12T12:14:33.693Z,98792.77
2019-03-12T12:16:41.325Z,98782.47
2019-03-12T12:18:48.903Z,98797.37
2019-03-12T12:20:56.547Z,98800.45
2019-03-12T12:23:04.246Z,98802.25
2019-03-12T12:25:20.193Z,98791.61
2019-03-12T12:27:27.746Z,98793.62
2019-03-12T12:29:35.414Z,98790.28
2019-03-12T12:31:43.007Z,98801.13
2019-03-12T12:33:50.669Z,98802.01
2019-03-12T12:35:58.343Z,98796.23
2019-03-12T12:38:06.169Z,98787.56
2019-03-12T12:40:17.505Z,98786.52
2019-03-12T12:42:25.140Z,98787.72
2019-03-12T12:44:32.957Z,98805.60
2019-03-12T12:46:40.521Z,98795.84
2019-03-12T12:48:49.146Z,98789.52
2019-03-12T12:51:03.000Z,98792.89
2019-03-12T12:53:07.245Z,98777.05
2019-03-12T12:55:16.015Z,98770.27
2019-03-12T12:57:24.218Z,98777.83
2019-03-12T12:59:31.882Z,98785.09
2019-03-12T13:01:39.441Z,98776.77
2019-03-12T13:03:47.119Z,98780.41
2019-03-12T13:05:55.790Z,98772.79
2019-03-12T13:08:05.167Z,98774.63
2019-03-12T13:10:20.410Z,98780.69
2019-03-12T13:12:28.064Z,98780.73
2019-03-12T13:14:41.368Z,98778.01
2019-03-12T13:16:45.189Z,98779.21
2019-03-12T13:18:53.044Z,98775.97
2019-03-12T13:21:00.712Z,98785.66
2019-03-12T13:23:09.548Z,98777.36
2019-03-12T13:25:18.911Z,98774.66
2019-03-12T13:27:26.840Z,98770.09
2019-03-12T13:29:34.419Z,98772.94
2019-03-12T13:31:42.150Z,98775.30
2019-03-12T13:33:50.059Z,98778.11
2019-03-12T13:35:57.706Z,98777.68
2019-03-12T13:38:05.341Z,98783.86
2019-03-12T13:40:19.366Z,98779.63
2019-03-12T13:42:27.065Z,98774.56
2019-03-12T13:44:35.020Z,98777.09
2019-03-12T13:46:42.757Z,98771.26
2019-03-12T13:48:50.496Z,98781.41
2019-03-12T13:50:58.442Z,98768.16
2019-03-12T13:53:06.221Z,98770.02
2019-03-12T13:55:16.118Z,98778.56
2019-03-12T13:57:24.633Z,98772.09
2019-03-12T13:59:32.295Z,98782.86
2019-03-12T14:01:39.903Z,98788.13
2019-03-12T14:03:47.643Z,98776.84
2019-03-12T14:05:55.312Z,98772.55
2019-03-12T14:08:02.994Z,98780.24
2019-03-12T14:10:19.714Z,98773.58
2019-03-12T14:12:27.377Z,98771.95
2019-03-12T14:14:34.964Z,98776.55
2019-03-12T14:16:42.519Z,98774.25
2019-03-12T14:18:50.151Z,98770.66
2019-03-12T14:21:08.804Z,98771.91
2019-03-12T14:23:29.229Z,98769.77
2019-03-12T14:25:37.925Z,98762.92
2019-03-12T14:27:45.559Z,98761.98
2019-03-12T14:29:54.157Z,98765.13
2019-03-12T14:32:02.812Z,98767.39
2019-03-12T14:34:10.541Z,98746.17
2019-03-12T14:36:18.336Z,98741.60
2019-03-12T14:38:26.132Z,98753.76
2019-03-12T14:40:33.789Z,98757.20
2019-03-12T14:42:41.418Z,98760.05
2019-03-12T14:44:48.986Z,98765.48
2019-03-12T14:46:56.654Z,98757.54
2019-03-12T14:49:04.364Z,98766.69
2019-03-12T14:51:36.244Z,98778.14
2019-03-12T14:53:47.991Z,98779.23
2019-03-12T14:55:55.526Z,98776.03
2019-03-12T14:58:04.302Z,98768.16
2019-03-12T15:00:21.247Z,98774.61
2019-03-12T15:02:31.583Z,98771.42
2019-03-12T15:04:39.218Z,98767.34
2019-03-12T15:06:46.982Z,98774.12
2019-03-12T15:08:54.818Z,98778.08
2019-03-12T15:11:02.442Z,98781.25
2019-03-12T15:13:10.040Z,98777.28
2019-03-12T15:15:17.671Z,98770.03
2019-03-12T15:17:25.385Z,98772.14
2019-03-12T15:19:32.967Z,98771.30
2019-03-12T15:21:40.600Z,98775.28
2019-03-12T15:23:48.304Z,98765.63
2019-03-12T15:25:55.894Z,98765.81
2019-03-12T15:28:03.463Z,98771.12
2019-03-12T15:30:24.258Z,98764.62
2019-03-12T15:32:31.953Z,98764.77
2019-03-12T15:34:39.594Z,98766.78
2019-03-12T15:36:47.166Z,98769.80
2019-03-12T15:38:54.869Z,98771.03
2019-03-12T15:41:02.434Z,98763.71
2019-03-12T15:43:10.074Z,98771.27
2019-03-12T15:45:18.814Z,98767.47
2019-03-12T15:47:26.480Z,98762.18
2019-03-12T15:49:34.082Z,98762.09
2019-03-12T15:51:41.770Z,98759.56
2019-03-12T15:53:49.349Z,98758.72
2019-03-12T15:55:57.051Z,98757.48
2019-03-12T15:58:05.299Z,98761.73
2019-03-12T16:00:19.467Z,98752.49
2019-03-12T16:02:27.143Z,98753.70
2019-03-12T16:04:34.913Z,98751.04
2019-03-12T16:06:42.587Z,98751.27
2019-03-12T16:08:50.169Z,98749.52
2019-03-12T16:10:58.715Z,98751.47
2019-03-12T16:13:07.870Z,98759.14
2019-03-12T16:15:19.538Z,98747.90
2019-03-12T16:17:29.662Z,98744.70
2019-03-12T16:19:36.630Z,98740.73
2019-03-12T16:21:44.261Z,98752.75
2019-03-12T16:23:52.852Z,98740.58
2019-03-12T16:26:03.040Z,98736.02
2019-03-12T16:28:10.615Z,98736.48
2019-03-12T16:30:21.420Z,98735.22
2019-03-12T16:32:28.993Z,98730.91
2019-03-12T16:34:36.715Z,98728.44
2019-03-12T16:36:44.472Z,98731.75
2019-03-12T16:38:52.323Z,98732.64
2019-03-12T16:40:59.896Z,98721.77
2019-03-12T16:43:07.499Z,98718.03
2019-03-12T16:45:20.029Z,98718.39
2019-03-12T16:47:27.653Z,98714.19
2019-03-12T16:49:35.248Z,98714.56
2019-03-12T16:51:42.819Z,98715.83
2019-03-12T16:53:51.685Z,98708.77
2019-03-12T16:55:59.404Z,98709.52
2019-03-12T16:58:07.556Z,98713.89
2019-03-12T17:00:20.100Z,98707.61
2019-03-12T17:02:27.704Z,98708.73
2019-03-12T17:04:35.453Z,98703.13
2019-03-12T17:06:43.078Z,98700.61
2019-03-12T17:08:50.682Z,98709.73
2019-03-12T17:11:02.418Z,98708.73
2019-03-12T17:13:07.587Z,98709.91
2019-03-12T17:15:25.100Z,98722.03
2019-03-12T17:17:32.748Z,98720.73
2019-03-12T17:19:40.396Z,98722.05
2019-03-12T17:21:48.092Z,98724.95
2019-03-12T17:23:55.846Z,98725.37
2019-03-12T17:26:03.424Z,98726.18
2019-03-12T17:28:11.343Z,98730.92
2019-03-12T17:30:22.513Z,98737.31
2019-03-12T17:32:30.084Z,98735.17
2019-03-12T17:34:39.291Z,98731.45
2019-03-12T17:36:47.934Z,98728.21
2019-03-12T17:38:55.607Z,98730.78
2019-03-12T17:41:03.306Z,98723.66
2019-03-12T17:43:10.956Z,98717.75
2019-03-12T17:45:18.668Z,98727.59
2019-03-12T17:47:26.357Z,98725.47
2019-03-12T17:49:34.029Z,98722.60
2019-03-12T17:51:41.614Z,98722.55
2019-03-12T17:53:49.603Z,98717.90
2019-03-12T17:55:57.264Z,98713.28
2019-03-12T17:58:06.067Z,98717.48
2019-03-12T18:00:22.801Z,98717.48
2019-03-12T18:02:41.856Z,98715.42
2019-03-12T18:04:40.058Z,98716.39
2019-03-12T18:06:50.800Z,98708.06
2019-03-12T18:08:58.586Z,98710.19
2019-03-12T18:11:06.450Z,98708.95
2019-03-12T18:13:14.715Z,98711.91
2019-03-12T18:15:22.865Z,98706.94
2019-03-12T18:17:30.659Z,98708.79
2019-03-12T18:19:38.348Z,98708.41
2019-03-12T18:21:46.042Z,98708.92
2019-03-12T18:23:54.700Z,98706.48
2019-03-12T18:26:04.123Z,98708.56
2019-03-12T18:28:11.790Z,98703.97
2019-03-12T18:30:19.724Z,98702.77
2019-03-12T18:32:28.305Z,98708.25
2019-03-12T18:34:35.961Z,98705.78
2019-03-12T18:36:43.551Z,98705.42
2019-03-12T18:38:53.082Z,98697.41
2019-03-12T18:41:00.721Z,98697.02
2019-03-12T18:43:08.384Z,98706.70
2019-03-12T18:45:23.595Z,98699.60
2019-03-12T18:47:32.471Z,98694.98
2019-03-12T18:49:40.054Z,98698.80
2019-03-12T18:51:47.745Z,98693.77
2019-03-12T18:53:55.340Z,98694.25
2019-03-12T18:56:03.567Z,98693.06
2019-03-12T18:58:11.887Z,98693.56
2019-03-12T19:00:20.684Z,98691.95
2019-03-12T19:02:28.349Z,98690.78
2019-03-12T19:04:36.090Z,98690.87
2019-03-12T19:06:43.756Z,98688.42
2019-03-12T19:08:51.457Z,98685.11
2019-03-12T19:11:00.488Z,98679.68
2019-03-12T19:13:08.420Z,98675.09
2019-03-12T19:15:16.642Z,98670.91
2019-03-12T19:17:24.463Z,98676.41
2019-03-12T19:19:33.436Z,98672.66
2019-03-12T19:21:41.272Z,98679.38
2019-03-12T19:23:49.020Z,98681.97
2019-03-12T19:25:56.765Z,98687.83
2019-03-12T19:28:04.699Z,98687.84
2019-03-12T19:30:17.963Z,98692.48
2019-03-12T19:32:45.428Z,98685.35
2019-03-12T19:34:53.222Z,98679.89
2019-03-12T19:37:01.283Z,98685.78
2019-03-12T19:39:09.530Z,98681.16
2019-03-12T19:41:17.469Z,98676.58
2019-03-12T19:43:25.272Z,98674.53
2019-03-12T19:45:33.066Z,98673.69
2019-03-12T19:47:40.663Z,98664.88
2019-03-12T19:49:48.379Z,98661.52
2019-03-12T19:51:56.055Z,98665.72
2019-03-12T19:54:03.726Z,98668.34
2019-03-12T19:56:11.355Z,98667.87
2019-03-12T19:58:19.020Z,98667.50
2019-03-12T20:00:27.454Z,98659.95
2019-03-12T20:02:36.343Z,98660.77
2019-03-12T20:04:47.409Z,98652.81
2019-03-12T20:06:53.961Z,98652.42
2019-03-12T20:09:02.053Z,98647.47
2019-03-12T20:12:07.922Z,98638.72
2019-03-12T20:14:53.634Z,98640.03
2019-03-12T20:17:26.094Z,98638.10
2019-03-12T20:19:56.091Z,98635.22
2019-03-12T20:22:32.352Z,98636.54
2019-03-12T20:25:14.920Z,98631.97
2019-03-12T20:27:55.410Z,98619.00
2019-03-12T20:30:33.690Z,98619.02
2019-03-12T20:33:19.428Z,98624.46
2019-03-12T20:36:00.028Z,98619.82
2019-03-12T20:38:56.384Z,98616.92
2019-03-12T20:41:37.509Z,98609.80
2019-03-12T20:44:26.286Z,98601.02
2019-03-12T20:46:55.556Z,98599.77
2019-03-12T20:49:16.098Z,98605.66
2019-03-12T20:51:51.311Z,98603.17
2019-03-12T20:54:32.347Z,98595.22
2019-03-12T20:57:24.249Z,98591.02
2019-03-12T21:00:00.609Z,98586.84
2019-03-12T21:03:02.960Z,98583.94
2019-03-12T21:05:59.239Z,98576.40
2019-03-12T21:09:01.915Z,98576.84
2019-03-12T21:11:56.757Z,98564.71
2019-03-12T21:14:44.003Z,98565.12
2019-03-12T21:17:11.490Z,98567.64
2019-03-12T21:20:14.272Z,98561.80
2019-03-12T21:23:06.356Z,98570.19
2019-03-12T21:25:50.825Z,98563.92
2019-03-12T21:28:19.510Z,98567.67
2019-03-12T21:30:27.711Z,98556.38
2019-03-12T21:32:35.553Z,98553.85
2019-03-12T21:34:44.046Z,98559.70
2019-03-12T21:36:51.810Z,98554.23
2019-03-12T21:38:59.545Z,98557.12
2019-03-12T21:41:07.706Z,98548.71
2019-03-12T21:43:15.435Z,98547.86
2019-03-12T21:45:23.346Z,98545.70
2019-03-12T21:47:30.978Z,98534.38
2019-03-12T21:49:38.722Z,98532.30
2019-03-12T21:51:46.472Z,98526.41
2019-03-12T21:53:55.740Z,98532.24
2019-03-12T21:56:03.360Z,98525.52
2019-03-12T21:58:14.167Z,98517.56
2019-03-12T22:00:22.540Z,98512.57
2019-03-12T22:02:31.253Z,98513.84
2019-03-12T22:04:38.918Z,98505.02
2019-03-12T22:06:46.623Z,98504.98
2019-03-12T22:08:54.492Z,98499.13
2019-03-12T22:11:02.160Z,98492.41
2019-03-12T22:13:10.860Z,98484.87
2019-03-12T22:15:18.519Z,98481.54
2019-03-12T22:17:26.272Z,98472.34
2019-03-12T22:19:33.885Z,98468.17
2019-03-12T22:21:57.978Z,98462.27
2019-03-12T22:24:09.278Z,98457.23
2019-03-12T22:26:17.204Z,98456.39
2019-03-12T22:28:24.784Z,98455.55
2019-03-12T22:30:32.492Z,98450.10
2019-03-12T22:32:40.154Z,98456.81
2019-03-12T22:34:47.837Z,98455.95
2019-03-12T22:36:56.495Z,98454.34
2019-03-12T22:39:05.054Z,98450.14
2019-03-12T22:41:13.092Z,98443.11
2019-03-12T22:43:20.842Z,98445.58
2019-03-12T22:45:28.586Z,98438.92
2019-03-12T22:47:36.280Z,98429.34
2019-03-12T22:49:43.974Z,98432.30
2019-03-12T22:51:51.602Z,98436.04
2019-03-12T22:54:00.487Z,98426.00
2019-03-12T22:56:08.083Z,98420.55
2019-03-12T22:58:15.986Z,98410.05
2019-03-12T23:00:42.837Z,98408.36
2019-03-12T23:03:09.185Z,98409.67
2019-03-12T23:05:35.199Z,98402.98
2019-03-12T23:08:02.101Z,98408.03
2019-03-12T23:10:14.878Z,98412.70
2019-03-12T23:12:24.398Z,98403.95
2019-03-12T23:14:32.986Z,98397.23
2019-03-12T23:16:41.056Z,98394.73
2019-03-12T23:18:48.913Z,98391.76
2019-03-12T23:20:56.607Z,98388.84
2019-03-12T23:23:04.406Z,98383.84
2019-03-12T23:25:12.627Z,98370.44
2019-03-12T23:27:21.956Z,98377.56
2019-03-12T23:29:29.816Z,98369.61
2019-03-12T23:31:37.655Z,98365.45
2019-03-12T23:33:45.612Z,98360.44
2019-03-12T23:35:53.578Z,98360.44
2019-03-12T23:38:01.332Z,98358.39
2019-03-12T23:40:18.908Z,98346.72
2019-03-12T23:42:27.986Z,98347.59
2019-03-12T23:44:35.886Z,98335.39
2019-03-12T23:46:43.649Z,98326.25
2019-03-12T23:48:51.399Z,98327.47
2019-03-12T23:50:59.072Z,98330.81
2019-03-12T23:53:07.303Z,98319.97
2019-03-12T23:55:18.716Z,98315.36
2019-03-12T23:57:26.453Z,98313.23
2019-03-12T23:59:34.384Z,98314.54
